sensor_id;sensor_type;location;lat;lon;timestamp;pressure;altitude;pressure_sealevel;temperature;humidity
11395;BME280;5753;54.402;10.220;2023-01-25T00:02:07;103811.50;;;10.52;43.01
11395;BME280;5753;54.402;10.220;2023-01-25T00:04:33;103805.94;;;10.59;43.17
11395;BME280;5753;54.402;10.220;2023-01-25T00:06:59;103806.44;;;8.76;45.46
11395;BME280;5753;54.402;10.220;2023-01-25T00:09:26;103816.06;;;10.56;43.10
11395;BME280;5753;54.402;10.220;2023-01-25T00:11:52;103808.16;;;9.75;44.16
11395;BME280;5753;54.402;10.220;2023-01-25T00:14:21;103807.81;;;9.08;45.39
11395;BME280;5753;54.402;10.220;2023-01-25T00:16:47;103804.69;;;6.51;51.64
11395;BME280;5753;54.402;10.220;2023-01-25T00:19:13;103804.03;;;7.29;50.09
11395;BME280;5753;54.402;10.220;2023-01-25T00:21:42;103801.84;;;9.21;46.41
11395;BME280;5753;54.402;10.220;2023-01-25T00:24:08;103795.53;;;8.92;47.10
11395;BME280;5753;54.402;10.220;2023-01-25T00:26:36;103795.13;;;10.12;44.14
11395;BME280;5753;54.402;10.220;2023-01-25T00:29:03;103794.53;;;9.52;44.59
11395;BME280;5753;54.402;10.220;2023-01-25T00:36:44;103773.63;;;10.51;43.41
11395;BME280;5753;54.402;10.220;2023-01-25T00:39:12;103778.19;;;8.30;48.25
11395;BME280;5753;54.402;10.220;2023-01-25T00:41:38;103776.81;;;9.56;45.68
11395;BME280;5753;54.402;10.220;2023-01-25T00:44:05;103771.81;;;10.10;44.72
11395;BME280;5753;54.402;10.220;2023-01-25T00:46:31;103773.38;;;9.82;44.28
11395;BME280;5753;54.402;10.220;2023-01-25T00:48:57;103771.13;;;10.53;43.32
11395;BME280;5753;54.402;10.220;2023-01-25T00:51:24;103767.28;;;10.06;44.08
11395;BME280;5753;54.402;10.220;2023-01-25T00:53:50;103766.84;;;9.74;44.62
11395;BME280;5753;54.402;10.220;2023-01-25T00:56:16;103776.66;;;8.92;46.92
11395;BME280;5753;54.402;10.220;2023-01-25T00:58:45;103762.78;;;9.01;46.91
11395;BME280;5753;54.402;10.220;2023-01-25T01:01:12;103758.22;;;8.86;45.94
11395;BME280;5753;54.402;10.220;2023-01-25T01:03:39;103756.28;;;6.76;51.38
11395;BME280;5753;54.402;10.220;2023-01-25T01:06:08;103755.50;;;9.21;45.96
11395;BME280;5753;54.402;10.220;2023-01-25T01:08:39;103752.66;;;9.54;45.69
11395;BME280;5753;54.402;10.220;2023-01-25T01:11:08;103760.50;;;9.82;44.86
11395;BME280;5753;54.402;10.220;2023-01-25T01:13:35;103765.44;;;9.79;45.00
11395;BME280;5753;54.402;10.220;2023-01-25T01:16:03;103759.31;;;8.64;47.25
11395;BME280;5753;54.402;10.220;2023-01-25T01:18:37;103749.25;;;7.97;48.65
11395;BME280;5753;54.402;10.220;2023-01-25T01:21:04;103750.28;;;6.75;51.13
11395;BME280;5753;54.402;10.220;2023-01-25T01:23:31;103738.63;;;8.63;48.13
11395;BME280;5753;54.402;10.220;2023-01-25T01:26:01;103747.13;;;7.23;50.63
11395;BME280;5753;54.402;10.220;2023-01-25T01:28:29;103730.97;;;8.76;48.29
11395;BME280;5753;54.402;10.220;2023-01-25T01:31:02;103731.09;;;9.40;45.96
11395;BME280;5753;54.402;10.220;2023-01-25T01:33:29;103737.78;;;7.02;51.74
11395;BME280;5753;54.402;10.220;2023-01-25T01:35:55;103733.13;;;9.58;46.31
11395;BME280;5753;54.402;10.220;2023-01-25T01:38:22;103730.50;;;9.31;46.22
11395;BME280;5753;54.402;10.220;2023-01-25T01:40:49;103727.50;;;9.76;46.28
11395;BME280;5753;54.402;10.220;2023-01-25T01:43:21;103726.94;;;10.20;44.69
11395;BME280;5753;54.402;10.220;2023-01-25T01:53:50;103723.53;;;8.67;48.52
11395;BME280;5753;54.402;10.220;2023-01-25T01:56:22;103715.13;;;9.84;46.26
11395;BME280;5753;54.402;10.220;2023-01-25T01:58:53;103721.00;;;8.80;47.57
11395;BME280;5753;54.402;10.220;2023-01-25T02:01:20;103724.53;;;8.94;47.73
11395;BME280;5753;54.402;10.220;2023-01-25T02:03:47;103716.31;;;9.76;46.00
11395;BME280;5753;54.402;10.220;2023-01-25T02:06:16;103720.69;;;10.71;42.79
11395;BME280;5753;54.402;10.220;2023-01-25T02:08:45;103716.75;;;10.91;43.00
11395;BME280;5753;54.402;10.220;2023-01-25T02:11:12;103711.53;;;11.04;42.16
11395;BME280;5753;54.402;10.220;2023-01-25T02:13:38;103710.91;;;10.93;42.74
11395;BME280;5753;54.402;10.220;2023-01-25T02:16:05;103707.69;;;9.75;45.55
11395;BME280;5753;54.402;10.220;2023-01-25T02:18:32;103711.34;;;10.45;44.14
11395;BME280;5753;54.402;10.220;2023-01-25T02:20:58;103708.47;;;9.48;45.48
11395;BME280;5753;54.402;10.220;2023-01-25T02:26:17;103713.84;;;10.04;44.96
11395;BME280;5753;54.402;10.220;2023-01-25T02:29:05;103708.56;;;9.11;46.76
11395;BME280;5753;54.402;10.220;2023-01-25T02:31:32;103705.22;;;9.90;45.53
11395;BME280;5753;54.402;10.220;2023-01-25T02:33:58;103716.31;;;9.63;46.13
11395;BME280;5753;54.402;10.220;2023-01-25T02:36:27;103709.06;;;10.36;44.28
11395;BME280;5753;54.402;10.220;2023-01-25T02:42:00;103697.19;;;9.08;47.46
11395;BME280;5753;54.402;10.220;2023-01-25T02:44:30;103693.84;;;7.42;50.85
11395;BME280;5753;54.402;10.220;2023-01-25T02:46:57;103696.38;;;8.84;48.09
11395;BME280;5753;54.402;10.220;2023-01-25T02:49:23;103681.59;;;10.50;43.93
11395;BME280;5753;54.402;10.220;2023-01-25T02:51:52;103685.22;;;9.60;45.79
11395;BME280;5753;54.402;10.220;2023-01-25T02:54:22;103689.09;;;7.94;49.68
11395;BME280;5753;54.402;10.220;2023-01-25T02:56:49;103688.88;;;7.67;50.42
11395;BME280;5753;54.402;10.220;2023-01-25T02:59:15;103681.97;;;8.49;48.85
11395;BME280;5753;54.402;10.220;2023-01-25T03:01:43;103684.06;;;7.95;50.36
11395;BME280;5753;54.402;10.220;2023-01-25T03:04:10;103681.38;;;7.02;53.51
11395;BME280;5753;54.402;10.220;2023-01-25T03:06:38;103676.50;;;8.81;49.48
11395;BME280;5753;54.402;10.220;2023-01-25T03:09:06;103675.34;;;7.93;50.78
11395;BME280;5753;54.402;10.220;2023-01-25T03:11:32;103678.78;;;8.17;49.87
11395;BME280;5753;54.402;10.220;2023-01-25T03:13:58;103671.25;;;8.55;49.12
11395;BME280;5753;54.402;10.220;2023-01-25T03:16:24;103670.88;;;9.12;48.15
11395;BME280;5753;54.402;10.220;2023-01-25T03:18:55;103666.88;;;7.71;50.95
11395;BME280;5753;54.402;10.220;2023-01-25T03:21:22;103655.25;;;7.99;50.85
11395;BME280;5753;54.402;10.220;2023-01-25T03:23:53;103663.91;;;8.25;49.96
11395;BME280;5753;54.402;10.220;2023-01-25T03:26:21;103674.94;;;6.29;55.16
11395;BME280;5753;54.402;10.220;2023-01-25T03:28:47;103672.72;;;8.51;49.74
11395;BME280;5753;54.402;10.220;2023-01-25T03:31:14;103672.13;;;5.84;57.05
11395;BME280;5753;54.402;10.220;2023-01-25T03:33:41;103667.66;;;6.24;55.61
11395;BME280;5753;54.402;10.220;2023-01-25T03:36:08;103657.97;;;7.66;52.02
11395;BME280;5753;54.402;10.220;2023-01-25T03:38:34;103649.69;;;7.70;52.49
11395;BME280;5753;54.402;10.220;2023-01-25T03:41:01;103649.34;;;8.98;48.96
11395;BME280;5753;54.402;10.220;2023-01-25T03:43:28;103644.88;;;8.09;50.61
11395;BME280;5753;54.402;10.220;2023-01-25T03:45:59;103645.78;;;7.75;51.02
11395;BME280;5753;54.402;10.220;2023-01-25T03:48:26;103636.06;;;7.82;50.95
11395;BME280;5753;54.402;10.220;2023-01-25T03:50:57;103634.09;;;8.63;49.74
11395;BME280;5753;54.402;10.220;2023-01-25T03:53:25;103623.16;;;10.09;46.51
11395;BME280;5753;54.402;10.220;2023-01-25T03:56:09;103618.25;;;9.60;47.73
11395;BME280;5753;54.402;10.220;2023-01-25T03:58:37;103613.34;;;8.60;49.18
11395;BME280;5753;54.402;10.220;2023-01-25T04:01:05;103626.50;;;6.32;55.50
11395;BME280;5753;54.402;10.220;2023-01-25T04:03:32;103606.66;;;9.40;48.33
11395;BME280;5753;54.402;10.220;2023-01-25T04:05:59;103605.44;;;8.45;50.30
11395;BME280;5753;54.402;10.220;2023-01-25T04:08:26;103610.44;;;6.57;55.26
11395;BME280;5753;54.402;10.220;2023-01-25T04:10:58;103603.72;;;6.47;55.26
11395;BME280;5753;54.402;10.220;2023-01-25T04:13:25;103604.94;;;6.19;55.79
11395;BME280;5753;54.402;10.220;2023-01-25T04:15:51;103583.91;;;7.95;51.18
11395;BME280;5753;54.402;10.220;2023-01-25T04:18:18;103588.09;;;8.93;49.36
11395;BME280;5753;54.402;10.220;2023-01-25T04:20:44;103576.25;;;7.48;51.81
11395;BME280;5753;54.402;10.220;2023-01-25T04:23:11;103582.50;;;7.52;52.27
11395;BME280;5753;54.402;10.220;2023-01-25T04:25:37;103573.41;;;7.92;52.23
11395;BME280;5753;54.402;10.220;2023-01-25T04:28:04;103572.38;;;8.13;51.13
11395;BME280;5753;54.402;10.220;2023-01-25T04:30:30;103581.00;;;7.90;51.77
11395;BME280;5753;54.402;10.220;2023-01-25T04:33:00;103562.16;;;8.90;49.27
11395;BME280;5753;54.402;10.220;2023-01-25T04:35:27;103576.34;;;6.24;55.60
11395;BME280;5753;54.402;10.220;2023-01-25T04:37:54;103565.28;;;6.69;55.48
11395;BME280;5753;54.402;10.220;2023-01-25T04:40:21;103559.75;;;7.45;52.84
11395;BME280;5753;54.402;10.220;2023-01-25T04:42:47;103566.06;;;8.21;52.02
11395;BME280;5753;54.402;10.220;2023-01-25T04:45:13;103558.88;;;7.44;52.25
11395;BME280;5753;54.402;10.220;2023-01-25T04:47:40;103571.81;;;7.22;52.90
11395;BME280;5753;54.402;10.220;2023-01-25T04:50:06;103568.72;;;6.70;54.07
11395;BME280;5753;54.402;10.220;2023-01-25T04:52:32;103574.59;;;7.14;53.80
11395;BME280;5753;54.402;10.220;2023-01-25T04:54:58;103555.31;;;7.31;53.21
11395;BME280;5753;54.402;10.220;2023-01-25T04:57:24;103570.69;;;7.66;53.03
11395;BME280;5753;54.402;10.220;2023-01-25T04:59:50;103566.47;;;7.19;53.02
11395;BME280;5753;54.402;10.220;2023-01-25T05:02:16;103563.94;;;8.77;49.36
11395;BME280;5753;54.402;10.220;2023-01-25T05:04:42;103563.78;;;8.38;50.94
11395;BME280;5753;54.402;10.220;2023-01-25T05:07:09;103558.97;;;8.67;49.87
11395;BME280;5753;54.402;10.220;2023-01-25T05:09:35;103567.69;;;8.69;49.68
11395;BME280;5753;54.402;10.220;2023-01-25T05:12:01;103556.69;;;9.10;49.08
11395;BME280;5753;54.402;10.220;2023-01-25T05:14:27;103556.34;;;6.64;54.06
11395;BME280;5753;54.402;10.220;2023-01-25T05:16:53;103558.06;;;8.67;50.26
11395;BME280;5753;54.402;10.220;2023-01-25T05:19:19;103551.47;;;8.83;49.19
11395;BME280;5753;54.402;10.220;2023-01-25T05:21:45;103553.41;;;9.52;48.11
11395;BME280;5753;54.402;10.220;2023-01-25T05:24:24;103564.72;;;8.76;49.19
11395;BME280;5753;54.402;10.220;2023-01-25T05:26:50;103552.91;;;9.31;49.15
11395;BME280;5753;54.402;10.220;2023-01-25T05:29:26;103563.97;;;6.86;54.27
11395;BME280;5753;54.402;10.220;2023-01-25T05:31:52;103552.16;;;7.70;52.47
11395;BME280;5753;54.402;10.220;2023-01-25T05:34:19;103550.44;;;7.82;51.99
11395;BME280;5753;54.402;10.220;2023-01-25T05:36:45;103551.28;;;7.34;53.52
11395;BME280;5753;54.402;10.220;2023-01-25T05:39:11;103551.25;;;6.87;54.74
11395;BME280;5753;54.402;10.220;2023-01-25T05:41:37;103556.03;;;6.38;56.86
11395;BME280;5753;54.402;10.220;2023-01-25T05:44:03;103547.03;;;8.31;51.84
11395;BME280;5753;54.402;10.220;2023-01-25T05:46:29;103535.03;;;8.68;51.06
11395;BME280;5753;54.402;10.220;2023-01-25T05:48:56;103534.41;;;8.09;53.04
11395;BME280;5753;54.402;10.220;2023-01-25T05:51:22;103531.66;;;7.23;54.52
11395;BME280;5753;54.402;10.220;2023-01-25T05:53:48;103526.63;;;7.36;53.81
11395;BME280;5753;54.402;10.220;2023-01-25T05:56:14;103535.53;;;6.71;55.61
11395;BME280;5753;54.402;10.220;2023-01-25T05:58:40;103544.88;;;6.71;55.72
11395;BME280;5753;54.402;10.220;2023-01-25T06:01:07;103526.75;;;7.26;54.82
11395;BME280;5753;54.402;10.220;2023-01-25T06:03:33;103523.97;;;7.35;54.92
11395;BME280;5753;54.402;10.220;2023-01-25T06:06:01;103526.59;;;6.66;56.98
11395;BME280;5753;54.402;10.220;2023-01-25T06:08:29;103531.03;;;6.23;57.82
11395;BME280;5753;54.402;10.220;2023-01-25T06:10:55;103518.50;;;7.30;54.55
11395;BME280;5753;54.402;10.220;2023-01-25T06:13:22;103519.41;;;7.79;53.44
11395;BME280;5753;54.402;10.220;2023-01-25T06:15:53;103510.66;;;8.50;51.46
11395;BME280;5753;54.402;10.220;2023-01-25T06:18:19;103516.16;;;8.81;50.98
11395;BME280;5753;54.402;10.220;2023-01-25T06:20:45;103510.97;;;8.30;51.78
11395;BME280;5753;54.402;10.220;2023-01-25T06:23:12;103514.53;;;8.07;52.41
11395;BME280;5753;54.402;10.220;2023-01-25T06:25:38;103512.44;;;9.29;49.77
11395;BME280;5753;54.402;10.220;2023-01-25T06:28:04;103518.84;;;9.49;48.62
11395;BME280;5753;54.402;10.220;2023-01-25T06:30:30;103516.75;;;8.02;52.96
11395;BME280;5753;54.402;10.220;2023-01-25T06:33:00;103511.63;;;9.30;50.08
11395;BME280;5753;54.402;10.220;2023-01-25T06:35:27;103519.81;;;6.78;54.33
11395;BME280;5753;54.402;10.220;2023-01-25T06:37:57;103501.81;;;8.58;51.89
11395;BME280;5753;54.402;10.220;2023-01-25T06:40:23;103509.22;;;10.00;48.21
11395;BME280;5753;54.402;10.220;2023-01-25T06:42:50;103505.56;;;7.05;54.97
11395;BME280;5753;54.402;10.220;2023-01-25T06:45:16;103505.09;;;7.57;54.37
11395;BME280;5753;54.402;10.220;2023-01-25T06:47:42;103502.06;;;8.25;53.09
11395;BME280;5753;54.402;10.220;2023-01-25T06:50:09;103515.88;;;5.83;58.71
11395;BME280;5753;54.402;10.220;2023-01-25T06:52:35;103505.91;;;6.86;57.20
11395;BME280;5753;54.402;10.220;2023-01-25T06:55:03;103492.94;;;6.16;59.74
11395;BME280;5753;54.402;10.220;2023-01-25T06:57:29;103487.84;;;6.85;58.32
11395;BME280;5753;54.402;10.220;2023-01-25T06:59:55;103503.88;;;5.82;60.50
11395;BME280;5753;54.402;10.220;2023-01-25T07:02:21;103503.84;;;4.86;64.12
11395;BME280;5753;54.402;10.220;2023-01-25T07:04:47;103504.38;;;4.51;65.51
11395;BME280;5753;54.402;10.220;2023-01-25T07:07:13;103497.28;;;5.63;63.48
11395;BME280;5753;54.402;10.220;2023-01-25T07:09:39;103497.69;;;4.94;66.60
11395;BME280;5753;54.402;10.220;2023-01-25T07:12:06;103492.16;;;5.42;64.43
11395;BME280;5753;54.402;10.220;2023-01-25T07:14:32;103483.28;;;6.02;61.88
11395;BME280;5753;54.402;10.220;2023-01-25T07:16:58;103480.84;;;5.82;62.17
11395;BME280;5753;54.402;10.220;2023-01-25T07:19:24;103477.81;;;6.19;62.50
11395;BME280;5753;54.402;10.220;2023-01-25T07:21:51;103472.91;;;5.79;65.21
11395;BME280;5753;54.402;10.220;2023-01-25T07:24:18;103461.19;;;6.71;61.05
11395;BME280;5753;54.402;10.220;2023-01-25T07:26:45;103474.31;;;5.31;65.36
11395;BME280;5753;54.402;10.220;2023-01-25T07:29:14;103466.44;;;5.94;63.51
11395;BME280;5753;54.402;10.220;2023-01-25T07:31:40;103467.50;;;5.00;66.30
11395;BME280;5753;54.402;10.220;2023-01-25T07:34:08;103461.38;;;6.39;62.38
11395;BME280;5753;54.402;10.220;2023-01-25T07:36:35;103457.81;;;5.82;64.55
11395;BME280;5753;54.402;10.220;2023-01-25T07:39:02;103447.56;;;6.37;62.43
11395;BME280;5753;54.402;10.220;2023-01-25T07:41:28;103449.38;;;7.20;58.56
11395;BME280;5753;54.402;10.220;2023-01-25T07:43:54;103453.84;;;5.53;62.69
11395;BME280;5753;54.402;10.220;2023-01-25T07:46:20;103453.63;;;6.84;61.65
11395;BME280;5753;54.402;10.220;2023-01-25T07:48:50;103455.25;;;5.82;62.60
11395;BME280;5753;54.402;10.220;2023-01-25T07:51:18;103464.06;;;4.99;65.91
11395;BME280;5753;54.402;10.220;2023-01-25T07:53:50;103461.16;;;6.14;61.66
11395;BME280;5753;54.402;10.220;2023-01-25T07:56:17;103487.00;;;5.52;62.92
11395;BME280;5753;54.402;10.220;2023-01-25T07:58:44;103473.63;;;5.02;70.84
11395;BME280;5753;54.402;10.220;2023-01-25T08:01:13;103465.69;;;5.95;64.10
11395;BME280;5753;54.402;10.220;2023-01-25T08:03:40;103445.28;;;6.63;60.46
11395;BME280;5753;54.402;10.220;2023-01-25T08:06:07;103446.53;;;7.40;58.56
11395;BME280;5753;54.402;10.220;2023-01-25T08:08:35;103446.88;;;7.33;58.42
11395;BME280;5753;54.402;10.220;2023-01-25T08:11:08;103453.41;;;5.91;65.04
11395;BME280;5753;54.402;10.220;2023-01-25T08:13:34;103459.34;;;6.23;62.83
11395;BME280;5753;54.402;10.220;2023-01-25T08:16:00;103451.22;;;6.41;61.67
11395;BME280;5753;54.402;10.220;2023-01-25T08:18:26;103446.91;;;6.06;63.69
11395;BME280;5753;54.402;10.220;2023-01-25T08:20:56;103433.56;;;6.79;60.96
11395;BME280;5753;54.402;10.220;2023-01-25T08:23:22;103434.22;;;5.42;65.68
11395;BME280;5753;54.402;10.220;2023-01-25T08:25:49;103431.41;;;6.05;63.47
11395;BME280;5753;54.402;10.220;2023-01-25T08:28:16;103437.34;;;5.82;64.75
11395;BME280;5753;54.402;10.220;2023-01-25T08:30:42;103431.97;;;7.16;58.96
11395;BME280;5753;54.402;10.220;2023-01-25T08:33:08;103437.91;;;7.51;57.40
11395;BME280;5753;54.402;10.220;2023-01-25T08:35:34;103448.06;;;4.19;68.78
11395;BME280;5753;54.402;10.220;2023-01-25T08:38:02;103432.44;;;5.41;67.07
11395;BME280;5753;54.402;10.220;2023-01-25T08:40:29;103414.59;;;6.42;63.46
11395;BME280;5753;54.402;10.220;2023-01-25T08:42:55;103402.81;;;6.67;61.89
11395;BME280;5753;54.402;10.220;2023-01-25T08:45:21;103402.56;;;6.41;62.22
11395;BME280;5753;54.402;10.220;2023-01-25T08:47:47;103396.09;;;6.46;63.39
11395;BME280;5753;54.402;10.220;2023-01-25T08:50:13;103406.41;;;5.35;66.33
11395;BME280;5753;54.402;10.220;2023-01-25T08:52:41;103404.91;;;5.71;67.63
11395;BME280;5753;54.402;10.220;2023-01-25T08:55:07;103405.31;;;5.43;67.24
11395;BME280;5753;54.402;10.220;2023-01-25T08:57:33;103399.03;;;4.43;72.14
11395;BME280;5753;54.402;10.220;2023-01-25T08:59:59;103387.53;;;6.45;65.02
11395;BME280;5753;54.402;10.220;2023-01-25T09:02:25;103389.84;;;6.19;62.42
11395;BME280;5753;54.402;10.220;2023-01-25T09:04:51;103388.78;;;5.72;65.81
11395;BME280;5753;54.402;10.220;2023-01-25T09:07:17;103381.31;;;5.41;66.72
11395;BME280;5753;54.402;10.220;2023-01-25T09:09:43;103384.41;;;5.37;66.83
11395;BME280;5753;54.402;10.220;2023-01-25T09:12:09;103376.75;;;6.73;60.79
11395;BME280;5753;54.402;10.220;2023-01-25T09:14:35;103365.63;;;7.95;57.38
11395;BME280;5753;54.402;10.220;2023-01-25T09:17:03;103362.38;;;7.23;58.76
11395;BME280;5753;54.402;10.220;2023-01-25T09:19:29;103368.59;;;5.64;62.85
11395;BME280;5753;54.402;10.220;2023-01-25T09:21:55;103365.28;;;3.95;73.32
11395;BME280;5753;54.402;10.220;2023-01-25T09:24:22;103358.66;;;8.06;58.54
11395;BME280;5753;54.402;10.220;2023-01-25T09:26:48;103357.13;;;6.73;63.13
11395;BME280;5753;54.402;10.220;2023-01-25T09:29:14;103356.81;;;5.33;66.09
11395;BME280;5753;54.402;10.220;2023-01-25T09:31:40;103351.41;;;5.74;64.23
11395;BME280;5753;54.402;10.220;2023-01-25T09:34:09;103346.88;;;6.73;63.19
11395;BME280;5753;54.402;10.220;2023-01-25T09:36:36;103352.81;;;5.92;64.00
11395;BME280;5753;54.402;10.220;2023-01-25T09:39:03;103347.00;;;6.16;65.42
11395;BME280;5753;54.402;10.220;2023-01-25T09:47:03;103337.03;;;7.77;58.52
11395;BME280;5753;54.402;10.220;2023-01-25T09:54:45;103323.56;;;5.33;68.20
11395;BME280;5753;54.402;10.220;2023-01-25T09:57:25;103322.13;;;7.22;61.85
11395;BME280;5753;54.402;10.220;2023-01-25T09:59:53;103321.13;;;7.20;60.82
11395;BME280;5753;54.402;10.220;2023-01-25T10:04:52;103314.47;;;7.98;58.22
11395;BME280;5753;54.402;10.220;2023-01-25T10:07:27;103309.09;;;6.12;62.70
11395;BME280;5753;54.402;10.220;2023-01-25T10:10:10;103303.31;;;6.50;64.17
11395;BME280;5753;54.402;10.220;2023-01-25T10:12:38;103300.66;;;6.25;63.67
11395;BME280;5753;54.402;10.220;2023-01-25T10:15:18;103293.34;;;7.26;60.52
11395;BME280;5753;54.402;10.220;2023-01-25T10:17:47;103300.66;;;6.97;60.92
11395;BME280;5753;54.402;10.220;2023-01-25T10:26:05;103291.00;;;4.87;69.54
11395;BME280;5753;54.402;10.220;2023-01-25T10:28:43;103274.09;;;7.08;60.26
11395;BME280;5753;54.402;10.220;2023-01-25T10:31:17;103269.41;;;6.17;64.34
11395;BME280;5753;54.402;10.220;2023-01-25T10:33:46;103266.06;;;6.18;63.43
11395;BME280;5753;54.402;10.220;2023-01-25T10:36:15;103265.38;;;6.21;64.40
11395;BME280;5753;54.402;10.220;2023-01-25T10:38:46;103263.31;;;7.50;59.78
11395;BME280;5753;54.402;10.220;2023-01-25T10:42:03;103275.94;;;6.37;62.85
11395;BME280;5753;54.402;10.220;2023-01-25T10:44:21;103272.09;;;7.04;60.76
11395;BME280;5753;54.402;10.220;2023-01-25T10:47:00;103271.38;;;6.33;62.58
11395;BME280;5753;54.402;10.220;2023-01-25T10:52:22;103251.34;;;8.02;58.98
11395;BME280;5753;54.402;10.220;2023-01-25T10:57:32;103251.78;;;6.34;63.35
11395;BME280;5753;54.402;10.220;2023-01-25T11:00:04;103246.28;;;6.64;61.29
11395;BME280;5753;54.402;10.220;2023-01-25T11:02:42;103250.25;;;7.85;58.30
11395;BME280;5753;54.402;10.220;2023-01-25T11:07:45;103245.94;;;4.77;70.63
11395;BME280;5753;54.402;10.220;2023-01-25T11:10:35;103232.22;;;6.71;62.87
11395;BME280;5753;54.402;10.220;2023-01-25T11:13:17;103224.38;;;7.06;61.70
11395;BME280;5753;54.402;10.220;2023-01-25T11:18:51;103214.97;;;6.68;61.54
11395;BME280;5753;54.402;10.220;2023-01-25T11:21:53;103222.16;;;5.79;63.95
11395;BME280;5753;54.402;10.220;2023-01-25T11:24:15;103206.59;;;7.98;57.80
11395;BME280;5753;54.402;10.220;2023-01-25T11:26:41;103203.34;;;5.78;62.22
11395;BME280;5753;54.402;10.220;2023-01-25T11:29:21;103196.78;;;5.82;63.63
11395;BME280;5753;54.402;10.220;2023-01-25T11:31:50;103185.22;;;6.22;60.95
11395;BME280;5753;54.402;10.220;2023-01-25T11:34:20;103184.16;;;6.43;61.68
11395;BME280;5753;54.402;10.220;2023-01-25T11:44:57;103154.03;;;5.34;65.50
11395;BME280;5753;54.402;10.220;2023-01-25T11:47:53;103154.72;;;6.25;61.46
11395;BME280;5753;54.402;10.220;2023-01-25T11:56:23;103142.22;;;7.29;57.50
11395;BME280;5753;54.402;10.220;2023-01-25T12:01:19;103129.69;;;5.62;64.00
11395;BME280;5753;54.402;10.220;2023-01-25T12:13:03;103109.22;;;5.97;61.69
11395;BME280;5753;54.402;10.220;2023-01-25T12:15:49;103108.97;;;5.13;62.77
11395;BME280;5753;54.402;10.220;2023-01-25T12:18:44;103086.97;;;7.21;58.10
11395;BME280;5753;54.402;10.220;2023-01-25T12:29:35;103072.09;;;6.27;60.15
11395;BME280;5753;54.402;10.220;2023-01-25T12:32:18;103062.03;;;5.94;61.51
11395;BME280;5753;54.402;10.220;2023-01-25T12:34:51;103044.28;;;6.70;59.25
11395;BME280;5753;54.402;10.220;2023-01-25T12:37:27;103039.19;;;6.09;60.01
11395;BME280;5753;54.402;10.220;2023-01-25T12:40:11;103049.97;;;5.21;61.35
11395;BME280;5753;54.402;10.220;2023-01-25T12:42:51;103028.72;;;6.06;61.37
11395;BME280;5753;54.402;10.220;2023-01-25T12:45:29;103026.84;;;5.43;64.13
11395;BME280;5753;54.402;10.220;2023-01-25T12:48:12;103026.75;;;6.02;62.10
11395;BME280;5753;54.402;10.220;2023-01-25T12:50:53;103016.72;;;5.45;63.48
11395;BME280;5753;54.402;10.220;2023-01-25T12:53:24;103012.06;;;5.39;63.08
11395;BME280;5753;54.402;10.220;2023-01-25T12:55:52;103009.59;;;5.05;66.97
11395;BME280;5753;54.402;10.220;2023-01-25T13:01:24;102987.84;;;6.19;61.68
11395;BME280;5753;54.402;10.220;2023-01-25T13:09:52;102968.69;;;6.39;62.42
11395;BME280;5753;54.402;10.220;2023-01-25T13:12:22;102967.09;;;6.66;60.25
11395;BME280;5753;54.402;10.220;2023-01-25T13:14:49;102962.31;;;8.49;54.02
11395;BME280;5753;54.402;10.220;2023-01-25T13:17:42;102967.94;;;7.45;57.48
11395;BME280;5753;54.402;10.220;2023-01-25T13:23:11;102953.38;;;8.00;55.12
11395;BME280;5753;54.402;10.220;2023-01-25T13:25:51;102946.19;;;7.67;55.69
11395;BME280;5753;54.402;10.220;2023-01-25T13:28:42;102949.75;;;5.50;62.85
11395;BME280;5753;54.402;10.220;2023-01-25T13:34:18;102942.41;;;7.75;56.75
11395;BME280;5753;54.402;10.220;2023-01-25T13:36:58;102957.66;;;5.53;64.24
11395;BME280;5753;54.402;10.220;2023-01-25T13:42:19;102954.97;;;6.00;60.59
11395;BME280;5753;54.402;10.220;2023-01-25T13:45:10;102944.56;;;6.48;60.16
11395;BME280;5753;54.402;10.220;2023-01-25T13:47:38;102940.25;;;6.60;60.30
11395;BME280;5753;54.402;10.220;2023-01-25T13:52:56;102939.34;;;6.34;61.98
11395;BME280;5753;54.402;10.220;2023-01-25T13:55:23;102933.16;;;4.97;62.20
11395;BME280;5753;54.402;10.220;2023-01-25T13:57:49;102927.63;;;6.12;61.86
11395;BME280;5753;54.402;10.220;2023-01-25T14:00:16;102929.72;;;7.22;58.12
11395;BME280;5753;54.402;10.220;2023-01-25T14:02:45;102918.56;;;6.55;58.69
11395;BME280;5753;54.402;10.220;2023-01-25T14:05:20;102919.78;;;5.73;60.75
11395;BME280;5753;54.402;10.220;2023-01-25T14:07:52;102922.47;;;5.99;61.25
11395;BME280;5753;54.402;10.220;2023-01-25T14:10:22;102918.13;;;5.73;60.57
11395;BME280;5753;54.402;10.220;2023-01-25T14:12:52;102924.22;;;6.89;57.63
11395;BME280;5753;54.402;10.220;2023-01-25T14:15:21;102909.03;;;6.92;57.72
11395;BME280;5753;54.402;10.220;2023-01-25T14:18:11;102920.59;;;6.21;59.97
11395;BME280;5753;54.402;10.220;2023-01-25T14:20:44;102917.72;;;6.94;57.88
11395;BME280;5753;54.402;10.220;2023-01-25T14:23:37;102922.09;;;6.31;58.96
11395;BME280;5753;54.402;10.220;2023-01-25T14:26:10;102914.50;;;7.38;56.31
11395;BME280;5753;54.402;10.220;2023-01-25T14:28:46;102923.25;;;5.25;62.26
11395;BME280;5753;54.402;10.220;2023-01-25T14:31:34;102920.59;;;5.60;62.19
11395;BME280;5753;54.402;10.220;2023-01-25T14:34:01;102926.75;;;5.50;62.64
11395;BME280;5753;54.402;10.220;2023-01-25T14:36:32;102913.44;;;5.43;62.92
11395;BME280;5753;54.402;10.220;2023-01-25T14:38:59;102914.59;;;5.59;61.48
11395;BME280;5753;54.402;10.220;2023-01-25T14:41:30;102909.66;;;6.24;60.27
11395;BME280;5753;54.402;10.220;2023-01-25T14:44:11;102922.19;;;6.32;60.18
11395;BME280;5753;54.402;10.220;2023-01-25T14:46:39;102911.75;;;6.43;58.60
11395;BME280;5753;54.402;10.220;2023-01-25T14:54:21;102905.97;;;4.86;64.31
11395;BME280;5753;54.402;10.220;2023-01-25T14:57:19;102894.53;;;6.40;58.47
11395;BME280;5753;54.402;10.220;2023-01-25T14:59:51;102898.06;;;7.63;56.55
11395;BME280;5753;54.402;10.220;2023-01-25T15:05:00;102889.09;;;6.22;60.05